createdAt,value
2018-01-20T00:00:54.186Z,90.8
2018-01-20T00:01:57.549Z,91
2018-01-20T00:03:00.912Z,90.9
2018-01-20T00:04:04.296Z,90.7
2018-01-20T00:05:11.841Z,90.8
2018-01-20T00:06:15.291Z,90.7
2018-01-20T00:07:18.726Z,90.9
2018-01-20T00:08:22.769Z,90.9
2018-01-20T00:09:26.209Z,91.1
2018-01-20T00:10:29.762Z,91.1
2018-01-20T00:11:33.210Z,91.4
2018-01-20T00:12:36.503Z,91.5
2018-01-20T00:13:40.396Z,91.8
2018-01-20T00:14:43.813Z,91.9
2018-01-20T00:16:23.225Z,92
2018-01-20T00:17:26.837Z,92.1
2018-01-20T00:18:30.154Z,92.2
2018-01-20T00:19:34.137Z,92.3
2018-01-20T00:20:38.052Z,92.2
2018-01-20T00:21:42.154Z,92.3
2018-01-20T00:22:46.165Z,92.4
2018-01-20T00:23:49.548Z,92.4
2018-01-20T00:24:53.640Z,92.3
2018-01-20T00:25:57.147Z,92.3
2018-01-20T00:27:04.507Z,92.2
2018-01-20T00:28:07.714Z,92.3
2018-01-20T00:29:11.201Z,92.3
2018-01-20T00:30:14.474Z,92.2
2018-01-20T00:31:18.434Z,92.2
2018-01-20T00:32:22.473Z,92.1
2018-01-20T00:33:25.964Z,92.2
2018-01-20T00:34:30.162Z,92.2
2018-01-20T00:35:34.126Z,92.1
2018-01-20T00:36:38.572Z,92.1
2018-01-20T00:37:47.719Z,92.1
2018-01-20T00:38:52.731Z,92.1
2018-01-20T00:39:56.673Z,91.9
2018-01-20T00:41:01.852Z,91.9
2018-01-20T00:42:05.284Z,91.9
2018-01-20T00:43:08.553Z,91.9
2018-01-20T00:44:13.332Z,91.8
2018-01-20T00:45:16.697Z,91.8
2018-01-20T00:46:20.066Z,91.7
2018-01-20T00:47:23.445Z,91.7
2018-01-20T00:48:31.342Z,91.7
2018-01-20T00:49:36.105Z,91.8
2018-01-20T00:50:40.934Z,91.7
2018-01-20T00:51:45.357Z,91.7
2018-01-20T00:52:50.410Z,91.6
2018-01-20T00:53:54.545Z,91.6
2018-01-20T00:54:58.407Z,91.7
2018-01-20T00:56:04.662Z,91.6
2018-01-20T00:57:08.684Z,91.5
2018-01-20T00:58:12.708Z,91.4
2018-01-20T00:59:20.343Z,91.4
2018-01-20T01:00:25.770Z,91.3
2018-01-20T01:01:30.428Z,91.3
2018-01-20T01:02:35.456Z,91.3
2018-01-20T01:03:38.779Z,91.2
2018-01-20T01:04:42.278Z,91.3
2018-01-20T01:05:46.360Z,91.3
2018-01-20T01:06:49.749Z,91.3
2018-01-20T01:07:52.971Z,91.3
2018-01-20T01:08:57.346Z,91.4
2018-01-20T01:10:05.954Z,91.2
2018-01-20T01:11:09.188Z,91.3
2018-01-20T01:12:12.551Z,91.4
2018-01-20T01:13:17.858Z,91.3
2018-01-20T01:14:21.761Z,91.2
2018-01-20T01:15:26.661Z,91.3
2018-01-20T01:16:30.485Z,91.3
2018-01-20T01:17:36.199Z,91.2
2018-01-20T01:18:40.233Z,91.1
2018-01-20T01:19:44.294Z,90.9
2018-01-20T01:20:51.793Z,90.8
2018-01-20T01:21:57.065Z,91
2018-01-20T01:23:01.924Z,91.2
2018-01-20T01:24:07.029Z,91.1
2018-01-20T01:25:11.013Z,91.1
2018-01-20T01:26:15.357Z,91
2018-01-20T01:27:19.952Z,91
2018-01-20T01:28:23.311Z,91
2018-01-20T01:29:27.015Z,91
2018-01-20T01:30:31.354Z,91
2018-01-20T01:32:09.903Z,90.9
2018-01-20T01:33:13.924Z,90.7
2018-01-20T01:34:18.016Z,90.8
2018-01-20T01:35:22.164Z,90.8
2018-01-20T01:36:26.999Z,90.9
2018-01-20T01:37:31.000Z,90.8
2018-01-20T01:38:35.648Z,90.8
2018-01-20T01:39:38.970Z,90.7
2018-01-20T01:40:42.466Z,90.7
2018-01-20T01:41:46.484Z,90.7
2018-01-20T01:42:54.969Z,90.7
2018-01-20T01:43:59.503Z,90.5
2018-01-20T01:45:02.898Z,90.5
2018-01-20T01:46:06.400Z,90.6
2018-01-20T01:47:10.010Z,90.6
2018-01-20T01:48:13.240Z,90.5
2018-01-20T01:49:19.348Z,90.6
2018-01-20T01:50:23.351Z,90.6
2018-01-20T01:51:27.324Z,90.7
2018-01-20T01:52:31.245Z,90.6
2018-01-20T01:53:39.980Z,90.5
2018-01-20T01:54:44.431Z,90.7
2018-01-20T01:55:48.285Z,90.5
2018-01-20T01:56:51.942Z,90.5
2018-01-20T01:57:55.947Z,90.3
2018-01-20T01:58:59.322Z,90.2
2018-01-20T02:00:03.411Z,90.3
2018-01-20T02:01:07.277Z,90.3
2018-01-20T02:02:12.063Z,90.4
2018-01-20T02:03:15.365Z,90.3
2018-01-20T02:04:54.199Z,90.2
2018-01-20T02:05:58.777Z,90.1
2018-01-20T02:07:02.036Z,90.1
2018-01-20T02:08:06.140Z,90.1
2018-01-20T02:09:10.300Z,90
2018-01-20T02:10:14.926Z,90
2018-01-20T02:11:19.724Z,90
2018-01-20T02:12:24.889Z,89.6
2018-01-20T02:13:29.644Z,89.3
2018-01-20T02:14:34.558Z,89.5
2018-01-20T02:16:13.167Z,89.5
2018-01-20T02:17:17.241Z,89.4
2018-01-20T02:18:22.042Z,89.3
2018-01-20T02:19:25.501Z,89.1
2018-01-20T02:20:28.897Z,88.9
2018-01-20T02:21:32.911Z,88.7
2018-01-20T02:22:37.167Z,88.9
2018-01-20T02:23:40.435Z,88.8
2018-01-20T02:24:44.567Z,88.9
2018-01-20T02:25:47.794Z,88.6
2018-01-20T02:26:54.576Z,88.4
2018-01-20T02:27:57.887Z,88.2
2018-01-20T02:29:01.177Z,88.4
2018-01-20T02:30:05.160Z,88.7
2018-01-20T02:31:08.598Z,88.9
2018-01-20T02:32:12.113Z,89
2018-01-20T02:33:15.494Z,88.9
2018-01-20T02:34:20.241Z,89
2018-01-20T02:35:24.720Z,89.3
2018-01-20T02:36:28.172Z,89.5
2018-01-20T02:37:35.333Z,89.5
2018-01-20T02:38:39.781Z,89.5
2018-01-20T02:39:43.594Z,89.2
2018-01-20T02:40:47.011Z,89.3
2018-01-20T02:41:50.469Z,89.3
2018-01-20T02:42:53.818Z,89.3
2018-01-20T02:43:57.249Z,89.4
2018-01-20T02:45:00.607Z,89.5
2018-01-20T02:46:04.007Z,89.5
2018-01-20T02:47:07.969Z,89.6
2018-01-20T02:48:14.743Z,89.6
2018-01-20T02:49:18.246Z,89.6
2018-01-20T02:50:22.175Z,89.6
2018-01-20T02:51:25.500Z,89.8
2018-01-20T02:52:29.093Z,89.4
2018-01-20T02:53:33.387Z,89.5
2018-01-20T02:54:36.828Z,89.6
2018-01-20T02:55:40.229Z,89.2
2018-01-20T02:56:43.619Z,89.2
2018-01-20T02:57:47.612Z,89.5
2018-01-20T02:58:55.205Z,89.8
2018-01-20T02:59:58.550Z,89.5
2018-01-20T03:01:01.966Z,89.7
2018-01-20T03:02:05.282Z,89.5
2018-01-20T03:03:09.682Z,89.8
2018-01-20T03:04:14.033Z,89.9
2018-01-20T03:05:18.168Z,90
2018-01-20T03:06:23.127Z,90
2018-01-20T03:07:27.077Z,89.8
2018-01-20T03:08:30.463Z,90
2018-01-20T03:09:39.393Z,90
2018-01-20T03:10:43.303Z,90
2018-01-20T03:11:47.338Z,90
2018-01-20T03:12:51.401Z,89.9
2018-01-20T03:13:54.966Z,89.8
2018-01-20T03:14:59.751Z,89.8
2018-01-20T03:16:04.324Z,89.8
2018-01-20T03:17:08.429Z,89.9
2018-01-20T03:18:12.871Z,89.9
2018-01-20T03:19:17.197Z,89.8
2018-01-20T03:20:24.730Z,89.8
2018-01-20T03:21:30.319Z,89.8
2018-01-20T03:22:33.613Z,89.5
2018-01-20T03:23:36.921Z,89.6
2018-01-20T03:24:40.324Z,89.8
2018-01-20T03:25:44.231Z,89.6
2018-01-20T03:26:48.644Z,89.7
2018-01-20T03:27:52.542Z,89.7
2018-01-20T03:28:56.413Z,89.5
2018-01-20T03:30:01.119Z,89.6
2018-01-20T03:31:43.855Z,89.6
2018-01-20T03:32:48.424Z,89.3
2018-01-20T03:33:52.991Z,89.2
2018-01-20T03:34:57.941Z,89.6
2018-01-20T03:36:02.331Z,89.6
2018-01-20T03:37:06.504Z,89.2
2018-01-20T03:38:11.879Z,89.4
2018-01-20T03:39:16.580Z,89.7
2018-01-20T03:40:20.410Z,89.4
2018-01-20T03:41:25.679Z,89.6
2018-01-20T03:42:34.315Z,89.5
2018-01-20T03:43:38.943Z,89.5
2018-01-20T03:44:44.334Z,89.6
2018-01-20T03:45:48.459Z,89.6
2018-01-20T03:46:53.312Z,89.7
2018-01-20T03:47:56.501Z,89.2
2018-01-20T03:48:59.753Z,88.3
2018-01-20T03:50:05.163Z,88.4
2018-01-20T03:51:10.071Z,88.1
2018-01-20T03:52:15.538Z,88.2
2018-01-20T03:53:55.276Z,88.8
2018-01-20T03:55:00.025Z,89.4
2018-01-20T03:56:04.306Z,90
2018-01-20T03:57:07.636Z,90.4
2018-01-20T03:58:11.874Z,90.4
2018-01-20T03:59:16.495Z,90.5
2018-01-20T04:00:21.103Z,90.7
2018-01-20T04:01:25.225Z,90.9
2018-01-20T04:02:29.765Z,90.9
2018-01-20T04:03:34.644Z,90.9
2018-01-20T04:04:43.217Z,91
2018-01-20T04:05:48.179Z,91.1
2018-01-20T04:06:52.235Z,91.3
2018-01-20T04:07:57.042Z,91.4
2018-01-20T04:09:01.602Z,91.4
2018-01-20T04:10:06.140Z,91.6
2018-01-20T04:11:10.156Z,91.8
2018-01-20T04:12:13.401Z,91.9
2018-01-20T04:13:18.983Z,91.7
2018-01-20T04:14:25.221Z,91.8
2018-01-20T04:15:33.080Z,91.6
2018-01-20T04:16:37.405Z,91.5
2018-01-20T04:17:42.365Z,91.3
2018-01-20T04:18:46.978Z,91.3
2018-01-20T04:19:52.089Z,91.2
2018-01-20T04:20:57.191Z,91.1
2018-01-20T04:22:03.305Z,91
2018-01-20T04:23:07.784Z,90.9
2018-01-20T04:24:12.115Z,90.9
2018-01-20T04:25:17.060Z,90.9
2018-01-20T04:26:23.931Z,90.9
2018-01-20T04:27:31.125Z,90.8
2018-01-20T04:28:36.186Z,90.8
2018-01-20T04:29:41.957Z,90.5
2018-01-20T04:30:46.240Z,90.4
2018-01-20T04:31:52.275Z,90.4
2018-01-20T04:32:55.601Z,90.3
2018-01-20T04:34:00.284Z,90.5
2018-01-20T04:35:05.016Z,90.5
2018-01-20T04:36:09.556Z,90.4
2018-01-20T04:37:19.467Z,90.5
2018-01-20T04:38:23.455Z,90.3
2018-01-20T04:39:26.792Z,90
2018-01-20T04:40:34.071Z,90
2018-01-20T04:41:37.451Z,90
2018-01-20T04:42:42.724Z,90
2018-01-20T04:43:46.786Z,90.2
2018-01-20T04:44:51.017Z,90.1
2018-01-20T04:45:54.965Z,90
2018-01-20T04:47:00.653Z,89.6
2018-01-20T04:48:10.190Z,89.7
2018-01-20T04:49:14.755Z,89
2018-01-20T04:50:18.060Z,88.7
2018-01-20T04:51:21.550Z,87.4
2018-01-20T04:52:26.277Z,87.1
2018-01-20T04:53:31.819Z,88
2018-01-20T04:54:36.036Z,88.7
2018-01-20T04:55:41.320Z,89
2018-01-20T04:56:44.625Z,89.4
2018-01-20T04:57:49.781Z,89.8
2018-01-20T04:58:59.552Z,89
2018-01-20T05:00:04.716Z,89.5
2018-01-20T05:01:08.738Z,89.3
2018-01-20T05:02:12.805Z,89.5
2018-01-20T05:03:17.635Z,89.2
2018-01-20T05:04:20.984Z,89.2
2018-01-20T05:05:24.314Z,89.2
2018-01-20T05:06:27.783Z,89.8
2018-01-20T05:07:31.482Z,89.7
2018-01-20T05:08:34.890Z,89.6
2018-01-20T05:09:41.702Z,89.5
2018-01-20T05:10:45.059Z,89.5
2018-01-20T05:11:48.401Z,89.5
2018-01-20T05:12:51.758Z,89.6
2018-01-20T05:13:55.145Z,89.5
2018-01-20T05:14:58.517Z,89.7
2018-01-20T05:16:01.847Z,89.8
2018-01-20T05:17:05.252Z,89.9
2018-01-20T05:18:08.847Z,90.1
2018-01-20T05:19:12.110Z,90.1
2018-01-20T05:20:18.782Z,90.2
2018-01-20T05:21:22.176Z,90.2
2018-01-20T05:22:25.503Z,90.2
2018-01-20T05:23:28.913Z,90.3
2018-01-20T05:24:32.364Z,90.2
2018-01-20T05:25:37.418Z,90.2
2018-01-20T05:26:40.678Z,90.1
2018-01-20T05:27:44.475Z,90.1
2018-01-20T05:28:48.585Z,90.2
2018-01-20T05:29:52.672Z,90.2
2018-01-20T05:31:00.993Z,90.3
2018-01-20T05:32:04.392Z,90.3
2018-01-20T05:33:07.755Z,90.3
2018-01-20T05:34:11.803Z,90.4
2018-01-20T05:35:16.177Z,90.4
2018-01-20T05:36:20.416Z,90.5
2018-01-20T05:37:23.575Z,90.4
2018-01-20T05:38:27.740Z,90.4
2018-01-20T05:39:31.363Z,90.4
2018-01-20T05:40:36.641Z,90.5
2018-01-20T05:41:44.739Z,90.5
2018-01-20T05:42:48.936Z,90.6
2018-01-20T05:43:53.094Z,90.6
2018-01-20T05:44:57.915Z,90.6
2018-01-20T05:46:02.036Z,90.6
2018-01-20T05:47:07.292Z,90.6
2018-01-20T05:48:10.760Z,90.6
2018-01-20T05:49:14.906Z,90.6
2018-01-20T05:50:20.481Z,90.7
2018-01-20T05:51:24.857Z,90.7
2018-01-20T05:52:37.543Z,90.7
2018-01-20T05:53:42.864Z,90.7
2018-01-20T05:54:49.459Z,90.8
2018-01-20T05:55:55.989Z,90.8
2018-01-20T05:57:03.251Z,90.7
2018-01-20T05:58:09.394Z,90.7
2018-01-20T05:59:17.042Z,90.7
2018-01-20T06:00:22.073Z,90.6
2018-01-20T06:01:27.173Z,90.6
2018-01-20T06:02:31.696Z,90.6
2018-01-20T06:04:18.749Z,90.7
2018-01-20T06:05:22.728Z,90.9
2018-01-20T06:06:27.883Z,90.9
2018-01-20T06:07:35.749Z,90.9
2018-01-20T06:08:43.734Z,90.9
2018-01-20T06:09:50.473Z,91
2018-01-20T06:10:57.174Z,91
2018-01-20T06:12:03.229Z,90.9
2018-01-20T06:13:11.697Z,90.9
2018-01-20T06:14:16.595Z,90.9
2018-01-20T06:16:32.360Z,91
2018-01-20T06:17:40.234Z,90.8
2018-01-20T06:18:47.105Z,90.8
2018-01-20T06:19:55.113Z,90.7
2018-01-20T06:21:00.916Z,90.8
2018-01-20T06:22:06.915Z,90.6
2018-01-20T06:23:12.597Z,90.9
2018-01-20T06:24:18.337Z,90.6
2018-01-20T06:25:25.393Z,90.6
2018-01-20T06:26:32.155Z,90.7
2018-01-20T06:27:47.088Z,90.6
2018-01-20T06:28:50.478Z,90.5
2018-01-20T06:29:54.852Z,90.5
2018-01-20T06:30:58.773Z,90.5
2018-01-20T06:32:05.099Z,90.5
2018-01-20T06:33:12.721Z,90.6
2018-01-20T06:34:18.249Z,90.7
2018-01-20T06:35:25.004Z,90.6
2018-01-20T06:36:31.876Z,90.6
2018-01-20T06:37:38.844Z,90.7
2018-01-20T06:38:47.927Z,90.8
2018-01-20T06:39:51.956Z,90.8
2018-01-20T06:40:57.714Z,90.7
2018-01-20T06:42:03.997Z,90.7
2018-01-20T06:43:09.058Z,90.6
2018-01-20T06:44:15.542Z,90.6
2018-01-20T06:45:21.713Z,90.7
2018-01-20T06:46:26.279Z,90.7
2018-01-20T06:47:30.177Z,90.7
2018-01-20T06:48:36.594Z,90.6
2018-01-20T06:49:49.418Z,90.7
2018-01-20T06:50:54.776Z,90.6
2018-01-20T06:52:01.811Z,90.6
2018-01-20T06:53:07.003Z,90.5
2018-01-20T06:54:11.921Z,90.4
2018-01-20T06:55:19.549Z,90.5
2018-01-20T06:56:25.159Z,90.5
2018-01-20T06:57:32.899Z,90.4
2018-01-20T06:58:38.231Z,90.5
2018-01-20T06:59:44.274Z,90.6
2018-01-20T07:00:54.523Z,90.6
2018-01-20T07:01:58.404Z,90.5
2018-01-20T07:03:04.942Z,90.5
2018-01-20T07:04:11.965Z,90.5
2018-01-20T07:05:18.230Z,90.5
2018-01-20T07:06:24.269Z,90.5
2018-01-20T07:07:30.642Z,90.5
2018-01-20T07:08:37.255Z,90.4
2018-01-20T07:09:41.812Z,90.4
2018-01-20T07:10:47.923Z,90.4
2018-01-20T07:12:31.627Z,90.3
2018-01-20T07:13:39.031Z,90.3
2018-01-20T07:14:46.847Z,90.3
2018-01-20T07:15:51.679Z,90.2
2018-01-20T07:16:57.224Z,90.2
2018-01-20T07:18:05.098Z,90.2
2018-01-20T07:19:09.591Z,90.3
2018-01-20T07:20:19.090Z,90.3
2018-01-20T07:21:23.675Z,90.2
2018-01-20T07:22:27.625Z,90.2
2018-01-20T07:24:08.677Z,90.1
2018-01-20T07:25:13.971Z,90.2
2018-01-20T07:26:18.557Z,90.2
2018-01-20T07:27:24.086Z,90.1
2018-01-20T07:28:31.929Z,90
2018-01-20T07:29:36.302Z,90.1
2018-01-20T07:30:41.169Z,90
2018-01-20T07:31:46.369Z,89.8
2018-01-20T07:32:53.916Z,90
2018-01-20T07:34:03.679Z,89.6
2018-01-20T07:35:47.390Z,89.5
2018-01-20T07:36:53.445Z,89.4
2018-01-20T07:37:59.280Z,89.7
2018-01-20T07:39:04.763Z,89.5
2018-01-20T07:40:11.614Z,89
2018-01-20T07:41:14.999Z,88.8
2018-01-20T07:42:19.688Z,88.9
2018-01-20T07:43:27.630Z,89.2
2018-01-20T07:44:33.361Z,88.9
2018-01-20T07:45:38.280Z,89
2018-01-20T07:46:48.479Z,89
2018-01-20T07:47:51.928Z,89
2018-01-20T07:48:55.300Z,88.9
2018-01-20T07:49:58.675Z,88.9
2018-01-20T07:51:02.003Z,89.1
2018-01-20T07:52:05.601Z,89.2
2018-01-20T07:53:09.544Z,89.2
2018-01-20T07:54:13.436Z,89.1
2018-01-20T07:55:16.719Z,89.2
2018-01-20T07:56:19.895Z,89.3
2018-01-20T07:57:26.956Z,89
2018-01-20T07:58:30.636Z,89.2
2018-01-20T07:59:33.951Z,89.3
2018-01-20T08:00:38.022Z,89.1
2018-01-20T08:01:41.345Z,89.4
2018-01-20T08:02:45.220Z,89.3
2018-01-20T08:03:48.660Z,89.3
2018-01-20T08:04:52.826Z,89.3
2018-01-20T08:05:56.195Z,89.3
2018-01-20T08:07:00.150Z,89.5
2018-01-20T08:08:07.865Z,89.3
2018-01-20T08:09:11.045Z,89.3
2018-01-20T08:10:14.372Z,89.4
2018-01-20T08:11:18.239Z,89.1
2018-01-20T08:12:21.574Z,89
2018-01-20T08:13:25.011Z,89.6
2018-01-20T08:14:28.324Z,88.9
2018-01-20T08:15:31.745Z,88.9
2018-01-20T08:16:36.184Z,88.8
2018-01-20T08:17:40.210Z,89.3
2018-01-20T08:18:48.122Z,89.2
2018-01-20T08:19:51.544Z,89
2018-01-20T08:20:55.920Z,88.5
2018-01-20T08:21:59.475Z,88.1
2018-01-20T08:23:02.937Z,87.8
2018-01-20T08:24:06.365Z,87.9
2018-01-20T08:25:09.611Z,87.7
2018-01-20T08:26:14.126Z,87.7
2018-01-20T08:27:17.611Z,87.9
2018-01-20T08:28:20.979Z,88.1
2018-01-20T08:29:27.800Z,88
2018-01-20T08:30:31.170Z,87.8
2018-01-20T08:31:34.579Z,87.6
2018-01-20T08:32:39.191Z,87.2
2018-01-20T08:33:43.100Z,86.4
2018-01-20T08:34:46.488Z,86.7
2018-01-20T08:35:50.429Z,86.9
2018-01-20T08:36:53.726Z,86.7
2018-01-20T08:37:58.183Z,86.3
2018-01-20T08:39:01.585Z,86.3
2018-01-20T08:40:08.302Z,86.8
2018-01-20T08:41:11.532Z,86.9
2018-01-20T08:42:14.931Z,86.8
2018-01-20T08:43:18.223Z,87.2
2018-01-20T08:44:21.555Z,88.3
2018-01-20T08:45:25.447Z,87.6
2018-01-20T08:46:28.920Z,87.4
2018-01-20T08:47:32.461Z,87.2
2018-01-20T08:48:35.957Z,87.1
2018-01-20T08:49:39.334Z,87.2
2018-01-20T08:50:47.050Z,87.2
2018-01-20T08:51:51.790Z,87.5
2018-01-20T08:52:55.822Z,87.6
2018-01-20T08:53:59.326Z,87.2
2018-01-20T08:55:03.258Z,87.5
2018-01-20T08:56:07.910Z,87.2
2018-01-20T08:57:11.603Z,86.9
2018-01-20T08:58:14.909Z,86.4
2018-01-20T08:59:18.763Z,86.8
2018-01-20T09:00:22.244Z,87
2018-01-20T09:01:32.332Z,87.1
2018-01-20T09:02:37.630Z,87.1
2018-01-20T09:03:41.166Z,87.5
2018-01-20T09:04:44.524Z,87.4
2018-01-20T09:05:47.953Z,86.7
2018-01-20T09:06:52.287Z,86.6
2018-01-20T09:07:55.692Z,86.5
2018-01-20T09:08:59.734Z,86.8
2018-01-20T09:10:04.116Z,86.9
2018-01-20T09:11:07.644Z,87.2
2018-01-20T09:12:15.193Z,86.8
2018-01-20T09:13:18.609Z,87.2
2018-01-20T09:14:22.116Z,87.3
2018-01-20T09:15:26.562Z,86.8
2018-01-20T09:16:30.773Z,86.5
2018-01-20T09:17:35.414Z,86.7
2018-01-20T09:18:40.185Z,86.7
2018-01-20T09:19:44.610Z,87.1
2018-01-20T09:20:48.757Z,87.2
2018-01-20T09:21:53.443Z,87.7
2018-01-20T09:23:01.051Z,88.1
2018-01-20T09:24:04.470Z,88.3
2018-01-20T09:25:07.890Z,87.9
2018-01-20T09:26:11.297Z,87.9
2018-01-20T09:27:14.639Z,88.3
2018-01-20T09:28:18.046Z,88.3
2018-01-20T09:29:21.820Z,88.1
2018-01-20T09:30:25.377Z,88.1
2018-01-20T09:31:29.753Z,88.1
2018-01-20T09:32:33.168Z,88
2018-01-20T09:33:40.868Z,87.8
2018-01-20T09:34:44.405Z,87.7
2018-01-20T09:35:47.964Z,87.8
2018-01-20T09:36:52.030Z,87.9
2018-01-20T09:37:55.333Z,88
2018-01-20T09:38:58.816Z,88.2
2018-01-20T09:40:04.158Z,88.4
2018-01-20T09:41:08.188Z,88.1
2018-01-20T09:42:11.574Z,87.5
2018-01-20T09:43:15.152Z,87.1
2018-01-20T09:44:22.143Z,87.1
2018-01-20T09:45:26.114Z,87
2018-01-20T09:46:29.590Z,87.3
2018-01-20T09:47:33.222Z,86.5
2018-01-20T09:48:37.194Z,86.3
2018-01-20T09:49:40.491Z,86.4
2018-01-20T09:50:44.592Z,86.7
2018-01-20T09:51:48.085Z,86.7
2018-01-20T09:52:51.549Z,86.9
2018-01-20T09:53:55.021Z,87.1
2018-01-20T09:55:02.910Z,87.1
2018-01-20T09:56:08.110Z,87
2018-01-20T09:57:11.956Z,87
2018-01-20T09:58:15.570Z,86.8
2018-01-20T09:59:19.095Z,86.4
2018-01-20T10:00:22.615Z,85.8
2018-01-20T10:01:26.017Z,85.8
2018-01-20T10:02:29.625Z,85.6
2018-01-20T10:03:32.981Z,85.5
2018-01-20T10:04:36.384Z,85.2
2018-01-20T10:05:43.381Z,85.6
2018-01-20T10:06:46.785Z,85.1
2018-01-20T10:07:50.308Z,85.2
2018-01-20T10:08:54.787Z,85.1
2018-01-20T10:09:59.097Z,85.2
2018-01-20T10:11:02.413Z,85
2018-01-20T10:12:05.788Z,85.3
2018-01-20T10:13:09.166Z,85.3
2018-01-20T10:14:12.616Z,85.3
2018-01-20T10:15:16.083Z,85.4
2018-01-20T10:16:22.901Z,85.8
2018-01-20T10:17:26.346Z,85.6
2018-01-20T10:18:29.729Z,84.6
2018-01-20T10:19:33.061Z,84.6
2018-01-20T10:20:36.530Z,84.1
2018-01-20T10:21:40.083Z,84.4
2018-01-20T10:22:43.473Z,85
2018-01-20T10:23:46.713Z,84.7
2018-01-20T10:24:50.131Z,84.6
2018-01-20T10:25:53.574Z,84.7
2018-01-20T10:27:00.792Z,84.6
2018-01-20T10:28:04.250Z,84.5
2018-01-20T10:29:07.637Z,84.3
2018-01-20T10:30:11.138Z,84.3
2018-01-20T10:31:14.932Z,83.7
2018-01-20T10:32:19.116Z,83.7
2018-01-20T10:33:22.544Z,84.1
2018-01-20T10:34:26.119Z,83.9
2018-01-20T10:35:29.527Z,84.4
2018-01-20T10:36:33.055Z,84.2
2018-01-20T10:37:40.049Z,83.5
2018-01-20T10:38:43.415Z,83.6
2018-01-20T10:39:46.751Z,83.5
2018-01-20T10:40:50.128Z,83.9
2018-01-20T10:41:53.593Z,83.7
2018-01-20T10:42:57.047Z,84.1
2018-01-20T10:44:00.372Z,83.9
2018-01-20T10:45:03.679Z,84
2018-01-20T10:46:07.159Z,84.1
2018-01-20T10:47:10.526Z,84.1
2018-01-20T10:48:17.390Z,83.6
2018-01-20T10:49:20.744Z,83.4
2018-01-20T10:50:24.162Z,83.6
2018-01-20T10:51:27.490Z,83.7
2018-01-20T10:52:30.877Z,83.7
2018-01-20T10:53:34.441Z,84
2018-01-20T10:54:37.769Z,84.2
2018-01-20T10:55:41.254Z,83.9
2018-01-20T10:56:44.817Z,83.7
2018-01-20T10:57:48.189Z,84.2
2018-01-20T10:58:55.281Z,84.2
2018-01-20T10:59:58.701Z,84.1
2018-01-20T11:01:02.115Z,83.9
2018-01-20T11:02:05.558Z,83.6
2018-01-20T11:03:09.772Z,83.5
2018-01-20T11:04:13.291Z,83.7
2018-01-20T11:05:16.804Z,83.5
2018-01-20T11:06:20.226Z,83.7
2018-01-20T11:07:24.242Z,83.5
2018-01-20T11:08:27.655Z,83.9
2018-01-20T11:09:34.546Z,84.3
2018-01-20T11:10:38.165Z,84.5
2018-01-20T11:11:42.253Z,84.7
2018-01-20T11:12:46.045Z,84.8
2018-01-20T11:13:50.180Z,84.6
2018-01-20T11:14:53.639Z,84.6
2018-01-20T11:15:57.318Z,84.1
2018-01-20T11:17:00.843Z,84.2
2018-01-20T11:18:04.325Z,84.1
2018-01-20T11:19:07.890Z,84.1
2018-01-20T11:20:15.797Z,83.8
2018-01-20T11:21:19.692Z,83.9
2018-01-20T11:22:23.725Z,83.6
2018-01-20T11:23:27.027Z,83.6
2018-01-20T11:24:31.819Z,83.8
2018-01-20T11:25:36.958Z,84.2
2018-01-20T11:26:40.498Z,83.8
2018-01-20T11:27:43.888Z,83.7
2018-01-20T11:28:47.594Z,83.9
2018-01-20T11:29:52.028Z,84.1
2018-01-20T11:30:59.045Z,84.1
2018-01-20T11:32:03.303Z,84.8
2018-01-20T11:33:07.012Z,84.3
2018-01-20T11:34:12.182Z,84
2018-01-20T11:35:15.461Z,84.2
2018-01-20T11:36:19.405Z,83.5
2018-01-20T11:37:22.793Z,83.4
2018-01-20T11:38:26.355Z,83.2
2018-01-20T11:39:29.734Z,83.2
2018-01-20T11:40:33.102Z,83.3
2018-01-20T11:41:39.928Z,83.6
2018-01-20T11:42:43.492Z,83.2
2018-01-20T11:43:46.861Z,83.6
2018-01-20T11:44:50.273Z,83.4
2018-01-20T11:45:53.850Z,83.3
2018-01-20T11:46:57.255Z,83.4
2018-01-20T11:48:00.783Z,83.6
2018-01-20T11:49:04.241Z,83
2018-01-20T11:50:07.573Z,83
2018-01-20T11:51:12.206Z,83
2018-01-20T11:52:19.228Z,83.1
2018-01-20T11:53:22.906Z,83.9
2018-01-20T11:54:26.478Z,83.4
2018-01-20T11:55:30.008Z,82.9
2018-01-20T11:56:34.128Z,82.4
2018-01-20T11:57:38.261Z,82.5
2018-01-20T11:58:42.252Z,82.3
2018-01-20T11:59:46.303Z,82.2
2018-01-20T12:00:50.753Z,82.1
2018-01-20T12:01:54.405Z,82.2
2018-01-20T12:03:01.164Z,82.5
2018-01-20T12:04:05.592Z,82.5
2018-01-20T12:05:08.768Z,82
2018-01-20T12:06:12.252Z,82.2
2018-01-20T12:07:16.291Z,82.1
2018-01-20T12:08:20.338Z,81.6
2018-01-20T12:09:24.404Z,81.6
2018-01-20T12:10:27.919Z,81.1
2018-01-20T12:11:33.054Z,81.5
2018-01-20T12:12:37.168Z,82.1
2018-01-20T12:13:44.576Z,81.3
2018-01-20T12:14:48.113Z,81.3
2018-01-20T12:15:52.325Z,81.7
2018-01-20T12:16:56.410Z,81.4
2018-01-20T12:17:59.774Z,81.2
2018-01-20T12:19:05.347Z,81.8
2018-01-20T12:20:09.379Z,81.5
2018-01-20T12:21:14.156Z,81.7
2018-01-20T12:22:17.995Z,80.7
2018-01-20T12:23:22.133Z,80.8
2018-01-20T12:24:32.390Z,81.1
2018-01-20T12:25:36.604Z,80
2018-01-20T12:26:40.087Z,80.2
2018-01-20T12:27:45.324Z,80.3
2018-01-20T12:28:51.627Z,80
2018-01-20T12:29:54.783Z,80.6
2018-01-20T12:30:58.275Z,80.2
2018-01-20T12:32:03.241Z,80
2018-01-20T12:33:08.422Z,80.1
2018-01-20T12:34:11.817Z,80.1
2018-01-20T12:35:19.056Z,80.4
2018-01-20T12:36:22.660Z,79.5
2018-01-20T12:37:28.089Z,79.2
2018-01-20T12:38:31.668Z,79.7
2018-01-20T12:39:34.766Z,79.9
2018-01-20T12:40:39.990Z,80
2018-01-20T12:41:46.296Z,78.7
2018-01-20T12:42:49.504Z,78.6
2018-01-20T12:43:53.159Z,78.5
2018-01-20T12:44:56.722Z,77.1
2018-01-20T12:46:04.316Z,77.7
2018-01-20T12:47:07.618Z,77.9
2018-01-20T12:48:11.141Z,78.1
2018-01-20T12:49:14.617Z,77.5
2018-01-20T12:50:18.122Z,77.2
2018-01-20T12:51:22.892Z,76.4
2018-01-20T12:52:26.888Z,76.6
2018-01-20T12:53:34.447Z,77.2
2018-01-20T12:54:39.029Z,75.8
2018-01-20T12:55:43.291Z,75.4
2018-01-20T12:56:51.891Z,75.8
2018-01-20T12:57:56.210Z,74.7
2018-01-20T12:58:59.630Z,74.8
2018-01-20T13:00:03.941Z,74.6
2018-01-20T13:01:07.376Z,75.1
2018-01-20T13:02:11.928Z,75.6
2018-01-20T13:03:17.641Z,75.2
2018-01-20T13:04:23.159Z,76
2018-01-20T13:05:26.444Z,75.7
2018-01-20T13:06:30.010Z,75.3
2018-01-20T13:07:37.884Z,75.2
2018-01-20T13:08:42.146Z,75.5
2018-01-20T13:09:45.535Z,74.2
2018-01-20T13:10:48.766Z,73.9
2018-01-20T13:11:52.196Z,73.9
2018-01-20T13:12:56.301Z,74.5
2018-01-20T13:14:01.864Z,74.7
2018-01-20T13:15:05.406Z,74.2
2018-01-20T13:16:09.257Z,73.4
2018-01-20T13:17:13.952Z,73.4
2018-01-20T13:18:53.845Z,74.8
2018-01-20T13:19:58.681Z,74.2
2018-01-20T13:21:02.353Z,74.9
2018-01-20T13:22:05.697Z,74.8
2018-01-20T13:23:09.686Z,75.1
2018-01-20T13:24:13.060Z,75.1
2018-01-20T13:25:16.283Z,75.8
2018-01-20T13:26:20.865Z,76.5
2018-01-20T13:27:24.907Z,76.2
2018-01-20T13:28:28.316Z,75.5
2018-01-20T13:29:35.309Z,75.5
2018-01-20T13:30:40.355Z,75.7
2018-01-20T13:31:45.963Z,75.5
2018-01-20T13:32:49.324Z,74.9
2018-01-20T13:33:52.542Z,76
2018-01-20T13:34:56.469Z,76.2
2018-01-20T13:35:59.693Z,75.5
2018-01-20T13:37:03.841Z,75.6
2018-01-20T13:38:07.488Z,75.9
2018-01-20T13:39:11.045Z,76.3
2018-01-20T13:40:20.851Z,76.9
2018-01-20T13:41:24.396Z,77.3
2018-01-20T13:42:28.273Z,77.3
2018-01-20T13:43:34.974Z,76.8
2018-01-20T13:44:39.196Z,76.8
2018-01-20T13:45:42.832Z,76.9
2018-01-20T13:46:46.308Z,75.6
2018-01-20T13:47:51.806Z,75.3
2018-01-20T13:48:55.555Z,75.2
2018-01-20T13:49:59.055Z,74.6
2018-01-20T13:51:38.490Z,75
2018-01-20T13:52:42.044Z,76.7
2018-01-20T13:53:45.458Z,76.7
2018-01-20T13:54:50.442Z,77.2
2018-01-20T13:55:53.858Z,77
2018-01-20T13:56:57.890Z,77.2
2018-01-20T13:58:02.723Z,76.9
2018-01-20T13:59:06.081Z,77.2
2018-01-20T14:00:09.564Z,76.8
2018-01-20T14:01:17.598Z,76.9
2018-01-20T14:03:08.912Z,77
2018-01-20T14:04:13.370Z,77.4
2018-01-20T14:05:17.774Z,77.5
2018-01-20T14:06:21.570Z,78.6
2018-01-20T14:07:25.107Z,77.9
2018-01-20T14:08:28.490Z,78
2018-01-20T14:09:31.835Z,77.8
2018-01-20T14:10:35.585Z,77.5
2018-01-20T14:11:39.928Z,77.7
2018-01-20T14:12:43.504Z,77.3
2018-01-20T14:14:23.129Z,77.5
2018-01-20T14:15:28.400Z,77.2
2018-01-20T14:16:32.587Z,76.8
2018-01-20T14:17:36.210Z,76.5
2018-01-20T14:18:40.431Z,75.9
2018-01-20T14:19:44.827Z,76.3
2018-01-20T14:20:48.460Z,75.9
2018-01-20T14:21:52.371Z,76.4
2018-01-20T14:22:55.624Z,77.1
2018-01-20T14:23:59.106Z,77.6
2018-01-20T14:25:06.165Z,77.5
2018-01-20T14:26:09.757Z,78.3
2018-01-20T14:27:15.278Z,76.5
2018-01-20T14:28:18.757Z,76.1
2018-01-20T14:29:22.064Z,76.7
2018-01-20T14:30:26.269Z,77.9
2018-01-20T14:31:31.081Z,78.7
2018-01-20T14:32:34.573Z,78.6
2018-01-20T14:33:37.928Z,79.1
2018-01-20T14:34:42.194Z,79.7